AUA16A EDDL-LOWW
Flight info
| Callsign | AUA16A |
|---|---|
| Flight time | N/A |
| Altitude | 35000 |
| Route | DODEN7Z DODEN Y853 BOMBI DCT ESATI DCT BARSU DCT EKSOS DCT LULAR DCT RUDAP DCT BUDEX BUDEX2W |
| Aircraft | A321/M-SDE3FGHIRWY/LB1 |
Departure
| Time | 2026-05-05 19:02 |
|---|---|
| Airport | Düsseldorf Airport (EDDL) |
Arrival
| Time | N/A |
|---|---|
| Airport | Vienna International Airport (LOWW) |
| Time | Latitude | Longitude | Altitude | Speed | Heading |
|---|---|---|---|---|---|
| 2026-05-05 18:21 | 51.28193 | 6.76555 | 137 ft | 0 kts | 96° |
| 2026-05-05 18:45 | 51.28193 | 6.76546 | 137 ft | 4 kts | 95° |
| 2026-05-05 18:45 | 51.28194 | 6.76503 | 137 ft | 4 kts | 84° |
| 2026-05-05 18:45 | 51.28189 | 6.76462 | 137 ft | 4 kts | 65° |
| 2026-05-05 18:46 | 51.28174 | 6.76431 | 137 ft | 4 kts | 21° |
| 2026-05-05 18:46 | 51.28167 | 6.76427 | 137 ft | 0 kts | 7° |
| 2026-05-05 18:49 | 51.28217 | 6.76439 | 137 ft | 12 kts | 14° |
| 2026-05-05 18:50 | 51.28266 | 6.76490 | 137 ft | 7 kts | 44° |
| 2026-05-05 18:50 | 51.28306 | 6.76487 | 137 ft | 6 kts | 326° |
| 2026-05-05 18:50 | 51.28300 | 6.76382 | 137 ft | 14 kts | 237° |
| 2026-05-05 18:50 | 51.28245 | 6.76264 | 137 ft | 12 kts | 232° |
| 2026-05-05 18:51 | 51.28195 | 6.76160 | 137 ft | 12 kts | 232° |
| 2026-05-05 18:51 | 51.28144 | 6.76053 | 137 ft | 15 kts | 232° |
| 2026-05-05 18:51 | 51.28081 | 6.75920 | 137 ft | 14 kts | 232° |
| 2026-05-05 18:51 | 51.28027 | 6.75808 | 137 ft | 10 kts | 232° |
| 2026-05-05 18:52 | 51.27993 | 6.75737 | 137 ft | 6 kts | 232° |
| 2026-05-05 18:52 | 51.27988 | 6.75725 | 137 ft | 0 kts | 232° |
| 2026-05-05 18:53 | 51.27977 | 6.75704 | 137 ft | 8 kts | 232° |
| 2026-05-05 18:54 | 51.27945 | 6.75639 | 137 ft | 0 kts | 232° |
| 2026-05-05 18:54 | 51.27941 | 6.75630 | 137 ft | 0 kts | 232° |
| 2026-05-05 18:56 | 51.27919 | 6.75584 | 136 ft | 12 kts | 233° |
| 2026-05-05 18:56 | 51.27888 | 6.75519 | 136 ft | 2 kts | 233° |
| 2026-05-05 18:56 | 51.27887 | 6.75516 | 136 ft | 0 kts | 233° |
| 2026-05-05 18:58 | 51.27884 | 6.75509 | 136 ft | 1 kts | 233° |
| 2026-05-05 18:58 | 51.27858 | 6.75455 | 136 ft | 7 kts | 234° |
| 2026-05-05 18:58 | 51.27840 | 6.75415 | 136 ft | 4 kts | 236° |
| 2026-05-05 18:58 | 51.27834 | 6.75383 | 136 ft | 2 kts | 266° |
| 2026-05-05 18:59 | 51.27841 | 6.75360 | 136 ft | 3 kts | 306° |
| 2026-05-05 18:59 | 51.27844 | 6.75355 | 136 ft | 0 kts | 312° |
| 2026-05-05 18:59 | 51.27874 | 6.75322 | 135 ft | 7 kts | 332° |
| 2026-05-05 19:00 | 51.27881 | 6.75317 | 135 ft | 0 kts | 334° |
| 2026-05-05 19:00 | 51.27882 | 6.75316 | 135 ft | 1 kts | 334° |
| 2026-05-05 19:00 | 51.27897 | 6.75305 | 134 ft | 7 kts | 333° |
| 2026-05-05 19:01 | 51.27980 | 6.75263 | 131 ft | 13 kts | 18° |
| 2026-05-05 19:01 | 51.28017 | 6.75320 | 127 ft | 0 kts | 52° |
| 2026-05-05 19:01 | 51.28018 | 6.75321 | 127 ft | 0 kts | 52° |
| 2026-05-05 19:01 | 51.28131 | 6.75554 | 132 ft | 64 kts | 52° |
| 2026-05-05 19:02 | 51.28541 | 6.76410 | 133 ft | 127 kts | 52° |
| 2026-05-05 19:02 | 51.29172 | 6.77725 | 286 ft | 162 kts | 52° |
| 2026-05-05 19:02 | 51.29844 | 6.79170 | 948 ft | 163 kts | 53° |
| 2026-05-05 19:02 | 51.30522 | 6.80632 | 1558 ft | 171 kts | 54° |
| 2026-05-05 19:03 | 51.31282 | 6.82266 | 1817 ft | 193 kts | 55° |
| 2026-05-05 19:03 | 51.32114 | 6.84073 | 2082 ft | 213 kts | 56° |
| 2026-05-05 19:03 | 51.33052 | 6.86101 | 2324 ft | 238 kts | 56° |
| 2026-05-05 19:03 | 51.34056 | 6.88289 | 2973 ft | 250 kts | 56° |
| 2026-05-05 19:04 | 51.34957 | 6.90723 | 3660 ft | 256 kts | 73° |
| 2026-05-05 19:04 | 51.35219 | 6.93536 | 4529 ft | 259 kts | 94° |
| 2026-05-05 19:04 | 51.34946 | 6.96414 | 5220 ft | 268 kts | 102° |
| 2026-05-05 19:04 | 51.34599 | 6.99354 | 6015 ft | 270 kts | 102° |
| 2026-05-05 19:05 | 51.34264 | 7.02335 | 6728 ft | 276 kts | 102° |
| 2026-05-05 19:05 | 51.33931 | 7.05368 | 7509 ft | 276 kts | 102° |
| 2026-05-05 19:05 | 51.33613 | 7.08409 | 8230 ft | 282 kts | 101° |
| 2026-05-05 19:05 | 51.33302 | 7.11533 | 8918 ft | 282 kts | 101° |
| 2026-05-05 19:06 | 51.32974 | 7.14626 | 9705 ft | 286 kts | 103° |
| 2026-05-05 19:06 | 51.32308 | 7.17641 | 10283 ft | 291 kts | 118° |
| 2026-05-05 19:06 | 51.31145 | 7.20293 | 10987 ft | 293 kts | 133° |
| 2026-05-05 19:06 | 51.29672 | 7.22676 | 11259 ft | 312 kts | 135° |
| 2026-05-05 19:07 | 51.28071 | 7.25202 | 11386 ft | 334 kts | 135° |
| 2026-05-05 19:07 | 51.26930 | 7.26991 | 11567 ft | 344 kts | 136° |
| 2026-05-05 19:07 | 51.24644 | 7.30567 | 12360 ft | 350 kts | 136° |
| 2026-05-05 19:07 | 51.22895 | 7.33308 | 12879 ft | 354 kts | 136° |
| 2026-05-05 19:08 | 51.21137 | 7.36066 | 13361 ft | 355 kts | 136° |
| 2026-05-05 19:08 | 51.19374 | 7.38836 | 13811 ft | 356 kts | 136° |
| 2026-05-05 19:08 | 51.17610 | 7.41609 | 14230 ft | 358 kts | 136° |
| 2026-05-05 19:08 | 51.15835 | 7.44399 | 14751 ft | 359 kts | 136° |
| 2026-05-05 19:09 | 51.14041 | 7.47196 | 15317 ft | 362 kts | 136° |
| 2026-05-05 19:09 | 51.12227 | 7.49988 | 15900 ft | 364 kts | 137° |
| 2026-05-05 19:09 | 51.10392 | 7.52786 | 16398 ft | 368 kts | 137° |
| 2026-05-05 19:09 | 51.08527 | 7.55622 | 16816 ft | 373 kts | 137° |
| 2026-05-05 19:10 | 51.06647 | 7.58480 | 17337 ft | 376 kts | 137° |
| 2026-05-05 19:10 | 51.04749 | 7.61363 | 17885 ft | 378 kts | 137° |
| 2026-05-05 19:10 | 51.02842 | 7.64261 | 18387 ft | 380 kts | 137° |
| 2026-05-05 19:10 | 51.00923 | 7.67173 | 18846 ft | 382 kts | 137° |
| 2026-05-05 19:11 | 50.99000 | 7.70091 | 19290 ft | 384 kts | 137° |
| 2026-05-05 19:11 | 50.97043 | 7.72989 | 19714 ft | 385 kts | 141° |
| 2026-05-05 19:11 | 50.95619 | 7.74672 | 19988 ft | 386 kts | 147° |
| 2026-05-05 19:11 | 50.93337 | 7.76928 | 20410 ft | 388 kts | 148° |
| 2026-05-05 19:12 | 50.91041 | 7.79185 | 20829 ft | 389 kts | 148° |
| 2026-05-05 19:12 | 50.88735 | 7.81457 | 21246 ft | 391 kts | 148° |
| 2026-05-05 19:12 | 50.86420 | 7.83739 | 21668 ft | 393 kts | 148° |
| 2026-05-05 19:12 | 50.84091 | 7.86034 | 22094 ft | 395 kts | 148° |
| 2026-05-05 19:13 | 50.81748 | 7.88334 | 22524 ft | 397 kts | 148° |
| 2026-05-05 19:13 | 50.79392 | 7.90641 | 22956 ft | 399 kts | 148° |
| 2026-05-05 19:13 | 50.77025 | 7.92954 | 23378 ft | 401 kts | 148° |
| 2026-05-05 19:13 | 50.74644 | 7.95280 | 23744 ft | 403 kts | 148° |
| 2026-05-05 19:14 | 50.72276 | 7.97588 | 24355 ft | 396 kts | 148° |
| 2026-05-05 19:14 | 50.69956 | 7.99848 | 25070 ft | 388 kts | 148° |
| 2026-05-05 19:14 | 50.67686 | 8.02058 | 25806 ft | 379 kts | 148° |
| 2026-05-05 19:14 | 50.65476 | 8.04210 | 26554 ft | 369 kts | 148° |
| 2026-05-05 19:15 | 50.63320 | 8.06312 | 27217 ft | 363 kts | 148° |
| 2026-05-05 19:15 | 50.61153 | 8.08427 | 27460 ft | 367 kts | 147° |
| 2026-05-05 19:15 | 50.59101 | 8.10805 | 27870 ft | 367 kts | 140° |
| 2026-05-05 19:15 | 50.57150 | 8.13391 | 28271 ft | 366 kts | 140° |
| 2026-05-05 19:16 | 50.55195 | 8.15961 | 28695 ft | 366 kts | 140° |
| 2026-05-05 19:16 | 50.53232 | 8.18529 | 28932 ft | 370 kts | 140° |
| 2026-05-05 19:16 | 50.51234 | 8.21135 | 29069 ft | 377 kts | 140° |
| 2026-05-05 19:16 | 50.49206 | 8.23782 | 29203 ft | 383 kts | 140° |
| 2026-05-05 19:17 | 50.47141 | 8.26483 | 29371 ft | 390 kts | 140° |
| 2026-05-05 19:17 | 50.45038 | 8.29229 | 29504 ft | 396 kts | 140° |
| 2026-05-05 19:17 | 50.42905 | 8.32011 | 29651 ft | 402 kts | 140° |
| 2026-05-05 19:17 | 50.40738 | 8.34832 | 29778 ft | 407 kts | 140° |
| 2026-05-05 19:18 | 50.38543 | 8.37686 | 29922 ft | 413 kts | 140° |
| 2026-05-05 19:18 | 50.36318 | 8.40572 | 30046 ft | 418 kts | 140° |
| 2026-05-05 19:18 | 50.34061 | 8.43500 | 30181 ft | 423 kts | 140° |
| 2026-05-05 19:18 | 50.31785 | 8.46453 | 30307 ft | 427 kts | 140° |
| 2026-05-05 19:19 | 50.29491 | 8.49422 | 30529 ft | 428 kts | 140° |
| 2026-05-05 19:19 | 50.27237 | 8.52334 | 30755 ft | 428 kts | 140° |
| 2026-05-05 19:19 | 50.22639 | 8.58271 | 30821 ft | 427 kts | 140° |
| 2026-05-05 19:20 | 50.18058 | 8.64167 | 30812 ft | 427 kts | 140° |
| 2026-05-05 19:20 | 50.13464 | 8.70047 | 30809 ft | 427 kts | 140° |
| 2026-05-05 19:21 | 50.09134 | 8.76328 | 30817 ft | 427 kts | 128° |
| 2026-05-05 19:21 | 50.07534 | 8.80233 | 30815 ft | 429 kts | 117° |
| 2026-05-05 19:21 | 50.06443 | 8.84569 | 30821 ft | 432 kts | 107° |